createdAt,value
2019-04-07T00:01:10.294Z,11.50
2019-04-07T00:03:40.055Z,11.40
2019-04-07T00:06:12.362Z,11.30
2019-04-07T00:08:48.627Z,11.30
2019-04-07T00:11:19.801Z,11.20
2019-04-07T00:13:49.895Z,11.20
2019-04-07T00:16:31.574Z,11.20
2019-04-07T00:19:02.979Z,11.20
2019-04-07T00:21:33.332Z,11.20
2019-04-07T00:24:07.938Z,11.10
2019-04-07T00:26:37.122Z,11.10
2019-04-07T00:29:24.675Z,11.10
2019-04-07T00:31:54.067Z,11.00
2019-04-07T00:34:23.816Z,11.00
2019-04-07T00:36:56.035Z,11.00
2019-04-07T00:39:25.942Z,11.00
2019-04-07T00:41:59.825Z,11.00
2019-04-07T00:44:29.124Z,11.00
2019-04-07T00:47:14.212Z,10.90
2019-04-07T00:49:44.393Z,10.80
2019-04-07T00:52:22.130Z,10.80
2019-04-07T00:54:52.175Z,10.80
2019-04-07T00:57:21.935Z,10.80
2019-04-07T00:59:59.463Z,10.70
2019-04-07T01:02:37.544Z,10.70
2019-04-07T01:05:10.660Z,10.60
2019-04-07T01:07:39.913Z,10.50
2019-04-07T01:10:09.693Z,10.40
2019-04-07T01:12:49.004Z,10.40
2019-04-07T01:15:41.709Z,10.40
2019-04-07T01:18:10.997Z,10.30
2019-04-07T01:20:40.207Z,10.20
2019-04-07T01:23:19.219Z,10.00
2019-04-07T01:25:50.064Z,9.90
2019-04-07T01:28:19.807Z,9.80
2019-04-07T01:30:55.987Z,9.70
2019-04-07T01:33:31.339Z,9.80
2019-04-07T01:36:01.130Z,9.80
2019-04-07T01:38:30.690Z,9.70
2019-04-07T01:41:14.154Z,9.60
2019-04-07T01:44:00.082Z,9.50
2019-04-07T01:46:54.211Z,9.50
2019-04-07T01:49:40.517Z,9.30
2019-04-07T01:52:28.457Z,9.30
2019-04-07T01:55:16.752Z,9.30
2019-04-07T01:58:07.327Z,9.30
2019-04-07T02:00:58.985Z,9.30
2019-04-07T02:03:59.170Z,9.30
2019-04-07T02:07:00.830Z,9.20
2019-04-07T02:09:39.129Z,9.30
2019-04-07T02:12:41.191Z,9.30
2019-04-07T02:15:31.974Z,9.30
2019-04-07T02:18:06.180Z,9.20
2019-04-07T02:20:58.951Z,9.20
2019-04-07T02:23:42.124Z,9.10
2019-04-07T02:26:20.360Z,9.00
2019-04-07T02:29:09.137Z,8.90
2019-04-07T02:32:03.663Z,8.90
2019-04-07T02:34:50.926Z,8.90
2019-04-07T02:37:55.188Z,8.80
2019-04-07T02:40:45.753Z,8.70
2019-04-07T02:44:01.608Z,8.60
2019-04-07T02:46:54.712Z,8.50
2019-04-07T02:49:59.934Z,8.50
2019-04-07T02:52:57.269Z,8.60
2019-04-07T02:55:45.981Z,8.60
2019-04-07T02:58:38.038Z,8.50
2019-04-07T03:01:45.358Z,8.40
2019-04-07T03:04:20.526Z,8.40
2019-04-07T03:07:13.661Z,8.40
2019-04-07T03:10:08.866Z,8.40
2019-04-07T03:13:09.140Z,8.40
2019-04-07T03:15:50.222Z,8.30
2019-04-07T03:18:50.749Z,8.30
2019-04-07T03:21:43.200Z,8.20
2019-04-07T03:24:26.670Z,8.20
2019-04-07T03:27:15.824Z,8.10
2019-04-07T03:29:52.152Z,8.10
2019-04-07T03:32:49.297Z,8.00
2019-04-07T03:35:38.469Z,7.90
2019-04-07T03:38:36.735Z,7.90
2019-04-07T03:41:29.643Z,7.90
2019-04-07T03:44:12.862Z,7.80
2019-04-07T03:47:04.375Z,7.80
2019-04-07T03:49:48.102Z,7.80
2019-04-07T03:52:36.413Z,7.70
2019-04-07T03:55:40.962Z,7.60
2019-04-07T03:58:41.694Z,7.50
2019-04-07T04:01:35.606Z,7.50
2019-04-07T04:04:32.304Z,7.50
2019-04-07T04:07:29.900Z,7.40
2019-04-07T04:10:14.162Z,7.40
2019-04-07T04:12:56.492Z,7.50
2019-04-07T04:15:43.548Z,7.40
2019-04-07T04:18:22.550Z,7.20
2019-04-07T04:20:54.181Z,7.20
2019-04-07T04:23:23.827Z,7.20
2019-04-07T04:26:02.495Z,7.20
2019-04-07T04:28:33.384Z,7.20
2019-04-07T04:31:08.042Z,7.10
2019-04-07T04:33:37.739Z,6.90
2019-04-07T04:36:08.149Z,6.90
2019-04-07T04:38:38.535Z,6.90
2019-04-07T04:41:07.906Z,7.00
2019-04-07T04:43:38.024Z,7.10
2019-04-07T04:46:24.513Z,7.10
2019-04-07T04:48:58.767Z,7.10
2019-04-07T04:51:42.569Z,7.10
2019-04-07T04:54:12.804Z,7.00
2019-04-07T04:56:53.531Z,7.00
2019-04-07T04:59:24.067Z,7.10
2019-04-07T05:02:13.998Z,7.10
2019-04-07T05:05:00.556Z,7.20
2019-04-07T05:07:30.108Z,7.20
2019-04-07T05:10:15.366Z,7.20
2019-04-07T05:12:50.459Z,7.30
2019-04-07T05:15:23.066Z,7.30
2019-04-07T05:17:58.174Z,7.30
2019-04-07T05:20:28.602Z,7.30
2019-04-07T05:23:57.805Z,7.30
2019-04-07T05:26:27.267Z,7.30
2019-04-07T05:28:59.347Z,7.20
2019-04-07T05:31:31.600Z,7.20
2019-04-07T05:34:05.394Z,7.30
2019-04-07T05:36:37.957Z,7.30
2019-04-07T05:39:10.192Z,7.30
2019-04-07T05:41:49.063Z,7.40
2019-04-07T05:44:24.627Z,7.30
2019-04-07T05:46:56.950Z,7.20
2019-04-07T05:49:29.313Z,7.20
2019-04-07T05:52:03.854Z,7.30
2019-04-07T05:54:49.450Z,7.40
2019-04-07T05:57:26.200Z,7.40
2019-04-07T05:59:56.397Z,7.50
2019-04-07T06:02:38.081Z,7.60
2019-04-07T06:05:16.201Z,7.70
2019-04-07T06:07:45.911Z,7.80
2019-04-07T06:10:24.699Z,7.90
2019-04-07T06:13:06.303Z,8.00
2019-04-07T06:15:36.406Z,8.10
2019-04-07T06:18:05.547Z,8.40
2019-04-07T06:20:59.527Z,8.70
2019-04-07T06:23:30.677Z,9.10
2019-04-07T06:26:01.040Z,9.70
2019-04-07T06:28:31.493Z,10.30
2019-04-07T06:31:02.041Z,11.00
2019-04-07T06:33:39.142Z,11.60
2019-04-07T06:36:10.348Z,12.10
2019-04-07T06:38:51.363Z,12.50
2019-04-07T06:41:31.208Z,13.00
2019-04-07T06:44:09.877Z,13.50
2019-04-07T06:47:11.038Z,14.00
2019-04-07T06:50:05.877Z,14.50
2019-04-07T06:53:19.043Z,15.00
2019-04-07T06:56:12.035Z,15.40
2019-04-07T06:59:00.344Z,15.90
2019-04-07T07:01:47.685Z,16.10
2019-04-07T07:04:44.052Z,16.20
2019-04-07T07:07:32.599Z,16.70
2019-04-07T07:10:28.124Z,17.30
2019-04-07T07:13:25.769Z,17.80
2019-04-07T07:16:14.760Z,18.10
2019-04-07T07:19:06.390Z,18.40
2019-04-07T07:21:42.696Z,18.60
2019-04-07T07:24:15.723Z,19.10
2019-04-07T07:26:46.270Z,19.40
2019-04-07T07:29:21.328Z,19.70
2019-04-07T07:31:52.239Z,20.00
2019-04-07T07:34:28.358Z,20.30
2019-04-07T07:37:01.862Z,20.50
2019-04-07T07:39:37.318Z,20.70
2019-04-07T07:42:10.608Z,21.10
2019-04-07T07:44:42.878Z,21.40
2019-04-07T07:47:17.629Z,21.70
2019-04-07T07:49:48.206Z,21.80
2019-04-07T07:52:20.662Z,21.90
2019-04-07T07:54:49.553Z,22.10
2019-04-07T07:57:23.499Z,22.00
2019-04-07T07:59:52.062Z,22.10
2019-04-07T08:02:23.688Z,22.30
2019-04-07T08:04:56.764Z,22.40
2019-04-07T08:07:23.817Z,22.40
2019-04-07T08:09:54.366Z,22.40
2019-04-07T08:12:23.997Z,22.40
2019-04-07T08:14:56.360Z,22.30
2019-04-07T08:17:33.176Z,22.60
2019-04-07T08:20:02.397Z,22.60
2019-04-07T08:22:39.265Z,22.60
2019-04-07T08:25:06.210Z,22.90
2019-04-07T08:27:35.551Z,23.10
2019-04-07T08:30:09.918Z,23.20
2019-04-07T08:32:36.968Z,23.30
2019-04-07T08:35:06.878Z,23.30
2019-04-07T08:37:38.304Z,23.20
2019-04-07T08:40:09.091Z,22.60
2019-04-07T08:42:39.130Z,22.20
2019-04-07T08:45:09.817Z,21.70
2019-04-07T08:47:40.245Z,21.30
2019-04-07T08:50:10.578Z,21.10
2019-04-07T08:52:42.661Z,21.00
2019-04-07T08:55:13.940Z,20.90
2019-04-07T08:57:43.471Z,20.60
2019-04-07T09:00:18.420Z,20.20
2019-04-07T09:03:00.209Z,20.30
2019-04-07T09:05:31.141Z,20.20
2019-04-07T09:08:03.535Z,20.20
2019-04-07T09:10:40.822Z,20.10
2019-04-07T09:13:17.481Z,19.90
2019-04-07T09:16:05.070Z,19.90
2019-04-07T09:19:00.513Z,19.90
2019-04-07T09:21:50.169Z,20.20
2019-04-07T09:24:51.078Z,20.30
2019-04-07T09:27:31.275Z,20.30
2019-04-07T09:30:22.575Z,20.40
2019-04-07T09:33:16.704Z,20.60
2019-04-07T09:36:12.237Z,20.50
2019-04-07T09:38:59.935Z,20.70
2019-04-07T09:41:59.549Z,20.70
2019-04-07T09:45:03.300Z,20.70
2019-04-07T09:48:00.703Z,20.60
2019-04-07T09:51:02.490Z,20.90
2019-04-07T09:53:41.468Z,21.30
2019-04-07T09:56:34.284Z,21.60
2019-04-07T09:59:39.654Z,22.00
2019-04-07T10:02:29.357Z,22.00
2019-04-07T10:05:19.805Z,22.10
2019-04-07T10:08:13.904Z,22.10
2019-04-07T10:11:22.555Z,21.30
2019-04-07T10:14:23.770Z,20.90
2019-04-07T10:17:11.864Z,20.90
2019-04-07T10:19:50.002Z,20.70
2019-04-07T10:22:32.766Z,20.30
2019-04-07T10:25:22.934Z,20.00
2019-04-07T10:28:13.771Z,20.00
2019-04-07T10:31:11.395Z,20.20
2019-04-07T10:34:09.543Z,20.60
2019-04-07T10:37:04.998Z,21.10
2019-04-07T10:39:59.490Z,21.50
2019-04-07T10:42:49.079Z,21.60
2019-04-07T10:45:57.150Z,21.70
2019-04-07T10:48:46.735Z,21.90
2019-04-07T10:51:37.926Z,21.90
2019-04-07T10:54:31.387Z,21.70
2019-04-07T10:57:11.113Z,21.70
2019-04-07T10:59:51.309Z,21.80
2019-04-07T11:02:44.220Z,22.00
2019-04-07T11:05:26.086Z,22.20
2019-04-07T11:08:04.900Z,22.30
2019-04-07T11:10:50.796Z,22.30
2019-04-07T11:13:40.377Z,22.20
2019-04-07T11:16:33.737Z,22.30
2019-04-07T11:19:21.075Z,22.30
2019-04-07T11:22:06.778Z,22.30
2019-04-07T11:25:02.049Z,22.30
2019-04-07T11:27:49.428Z,22.00
2019-04-07T11:30:45.324Z,21.50
2019-04-07T11:33:23.313Z,21.50
2019-04-07T11:36:06.398Z,21.20
2019-04-07T11:38:55.880Z,21.10
2019-04-07T11:41:37.307Z,20.70
2019-04-07T11:44:21.649Z,20.40
2019-04-07T11:47:09.889Z,20.40
2019-04-07T11:50:05.987Z,20.50
2019-04-07T11:52:43.233Z,20.60
2019-04-07T11:55:22.907Z,20.50
2019-04-07T11:58:09.787Z,20.40
2019-04-07T12:00:52.667Z,20.30
2019-04-07T12:03:29.979Z,20.10
2019-04-07T12:06:31.130Z,19.90
2019-04-07T12:09:17.568Z,19.80
2019-04-07T12:12:02.437Z,19.80
2019-04-07T12:14:53.529Z,20.00
2019-04-07T12:17:39.505Z,20.30
2019-04-07T12:20:45.030Z,20.50
2019-04-07T12:23:33.738Z,20.60
2019-04-07T12:26:31.468Z,20.70
2019-04-07T12:29:33.150Z,20.70
2019-04-07T12:32:21.322Z,20.80
2019-04-07T12:35:13.070Z,20.80
2019-04-07T12:38:10.819Z,20.70
2019-04-07T12:40:44.253Z,20.80
2019-04-07T12:43:32.723Z,20.70
2019-04-07T12:46:12.164Z,20.70
2019-04-07T12:49:09.762Z,20.60
2019-04-07T12:51:57.600Z,20.50
2019-04-07T12:54:37.619Z,20.50
2019-04-07T12:57:30.816Z,20.40
2019-04-07T13:00:19.161Z,20.30
2019-04-07T13:02:56.808Z,20.10
2019-04-07T13:05:37.989Z,19.80
2019-04-07T13:08:22.515Z,19.70
2019-04-07T13:11:11.013Z,19.80
2019-04-07T13:13:53.127Z,20.00
2019-04-07T13:16:39.229Z,20.20
2019-04-07T13:19:26.336Z,20.20
2019-04-07T13:22:25.017Z,20.30
2019-04-07T13:25:14.279Z,20.20
2019-04-07T13:27:57.705Z,20.20
2019-04-07T13:30:56.337Z,20.10
2019-04-07T13:33:48.659Z,20.10
2019-04-07T13:36:43.608Z,19.90
2019-04-07T13:39:31.360Z,19.90
2019-04-07T13:42:42.700Z,19.80
2019-04-07T13:45:34.447Z,19.70
2019-04-07T13:48:19.398Z,19.60
2019-04-07T13:51:19.248Z,19.60
2019-04-07T13:54:17.948Z,19.60
2019-04-07T13:57:07.175Z,19.70
2019-04-07T13:59:47.883Z,19.70
2019-04-07T14:02:35.586Z,19.70
2019-04-07T14:05:27.390Z,19.70
2019-04-07T14:08:35.062Z,19.70
2019-04-07T14:11:25.788Z,19.80
2019-04-07T14:14:06.883Z,19.70
2019-04-07T14:17:00.557Z,19.60
2019-04-07T14:19:37.330Z,19.60
2019-04-07T14:22:17.697Z,19.60
2019-04-07T14:25:15.899Z,19.50
2019-04-07T14:28:04.709Z,19.50
2019-04-07T14:31:05.394Z,19.40
2019-04-07T14:33:54.585Z,19.40
2019-04-07T14:36:41.607Z,19.40
2019-04-07T14:39:35.817Z,19.40
2019-04-07T14:42:20.824Z,19.40
2019-04-07T14:45:13.083Z,19.40
2019-04-07T14:47:54.577Z,19.40
2019-04-07T14:50:56.054Z,19.40
2019-04-07T14:53:48.432Z,19.40
2019-04-07T14:56:40.848Z,19.40
2019-04-07T14:59:25.310Z,19.30
2019-04-07T15:01:54.183Z,19.30
2019-04-07T15:04:31.742Z,19.30
2019-04-07T15:07:20.471Z,19.30
2019-04-07T15:09:57.783Z,19.30
2019-04-07T15:12:45.777Z,19.30
2019-04-07T15:15:27.874Z,19.20
2019-04-07T15:17:57.645Z,19.10
2019-04-07T15:20:28.653Z,19.10
2019-04-07T15:22:59.922Z,19.20
2019-04-07T15:25:35.535Z,19.20
2019-04-07T15:28:04.679Z,19.20
2019-04-07T15:30:33.878Z,19.20
2019-04-07T15:33:04.089Z,19.20
2019-04-07T15:35:34.133Z,19.30
2019-04-07T15:38:11.281Z,19.30
2019-04-07T15:40:40.773Z,19.30
2019-04-07T15:43:22.454Z,19.20
2019-04-07T15:45:52.299Z,19.10
2019-04-07T15:48:30.696Z,18.90
2019-04-07T15:51:04.928Z,18.80
2019-04-07T15:53:36.940Z,18.70
2019-04-07T15:56:17.895Z,18.70
2019-04-07T15:58:46.661Z,18.60
2019-04-07T16:01:16.774Z,18.60
2019-04-07T16:03:52.653Z,18.50
2019-04-07T16:06:20.677Z,18.50
2019-04-07T16:08:51.213Z,18.50
2019-04-07T16:11:23.441Z,18.40
2019-04-07T16:13:52.168Z,18.40
2019-04-07T16:16:22.771Z,18.40
2019-04-07T16:18:52.856Z,18.40
2019-04-07T16:21:39.322Z,18.30
2019-04-07T16:24:07.610Z,18.20
2019-04-07T16:26:39.898Z,18.10
2019-04-07T16:29:10.384Z,18.10
2019-04-07T16:31:39.795Z,18.10
2019-04-07T16:34:10.379Z,18.20
2019-04-07T16:36:58.178Z,18.20
2019-04-07T16:39:33.565Z,18.10
2019-04-07T16:42:04.526Z,18.10
2019-04-07T16:44:36.294Z,18.00
2019-04-07T16:47:16.588Z,17.90
2019-04-07T16:49:37.101Z,17.80
2019-04-07T16:52:07.566Z,17.70
2019-04-07T16:54:41.740Z,17.70
2019-04-07T16:57:10.795Z,17.60
2019-04-07T16:59:42.835Z,17.60
2019-04-07T17:02:22.936Z,17.60
2019-04-07T17:04:52.712Z,17.60
2019-04-07T17:07:23.316Z,17.50
2019-04-07T17:09:56.450Z,17.50
2019-04-07T17:12:24.135Z,17.50
2019-04-07T17:14:54.530Z,17.50
2019-04-07T17:17:25.040Z,17.40
2019-04-07T17:19:57.477Z,17.40
2019-04-07T17:22:27.286Z,17.40
2019-04-07T17:25:00.344Z,17.40
2019-04-07T17:27:28.333Z,17.40
2019-04-07T17:29:58.475Z,17.30
2019-04-07T17:32:30.514Z,17.20
2019-04-07T17:35:03.299Z,17.20
2019-04-07T17:37:33.126Z,17.10
2019-04-07T17:40:16.086Z,17.00
2019-04-07T17:42:48.172Z,17.00
2019-04-07T17:45:38.167Z,16.90
2019-04-07T17:48:38.518Z,16.80
2019-04-07T17:51:23.963Z,16.80
2019-04-07T17:54:12.050Z,16.70
2019-04-07T17:57:06.984Z,16.60
2019-04-07T18:00:16.424Z,16.50
2019-04-07T18:03:13.175Z,16.50
2019-04-07T18:06:19.516Z,16.40
2019-04-07T18:09:11.681Z,16.40
2019-04-07T18:11:47.374Z,16.30
2019-04-07T18:14:40.539Z,16.20
2019-04-07T18:17:31.168Z,16.10
2019-04-07T18:20:11.967Z,16.10
2019-04-07T18:23:15.925Z,15.90
2019-04-07T18:26:04.236Z,15.80
2019-04-07T18:28:53.353Z,15.80
2019-04-07T18:31:40.293Z,15.80
2019-04-07T18:34:36.500Z,15.80
2019-04-07T18:37:12.662Z,15.80
2019-04-07T18:40:02.456Z,15.80
2019-04-07T18:42:49.038Z,15.70
2019-04-07T18:46:03.094Z,15.70
2019-04-07T18:48:46.045Z,15.60
2019-04-07T18:51:47.596Z,15.60
2019-04-07T18:54:39.932Z,15.60
2019-04-07T18:57:31.942Z,15.60
2019-04-07T19:00:21.034Z,15.60
2019-04-07T19:03:10.603Z,15.60
2019-04-07T19:05:52.202Z,15.60
2019-04-07T19:08:45.966Z,15.70
2019-04-07T19:11:48.699Z,15.70
2019-04-07T19:14:48.876Z,15.70
2019-04-07T19:17:34.825Z,15.70
2019-04-07T19:20:31.718Z,15.70
2019-04-07T19:24:02.466Z,15.60
2019-04-07T19:26:56.233Z,15.50
2019-04-07T19:29:57.376Z,15.50
2019-04-07T19:33:02.522Z,15.50
2019-04-07T19:35:51.879Z,15.50
2019-04-07T19:38:54.754Z,15.50
2019-04-07T19:41:34.873Z,15.50
2019-04-07T19:44:38.635Z,15.50
2019-04-07T19:47:22.684Z,15.50
2019-04-07T19:50:10.795Z,15.50
2019-04-07T19:53:04.956Z,15.40
2019-04-07T19:55:48.618Z,15.50
2019-04-07T19:58:42.973Z,15.40
2019-04-07T20:01:31.580Z,15.40
2019-04-07T20:04:22.734Z,15.30
2019-04-07T20:07:15.874Z,15.30
2019-04-07T20:10:26.932Z,15.30
2019-04-07T20:13:11.488Z,15.20
2019-04-07T20:15:47.311Z,15.20
2019-04-07T20:18:42.333Z,15.10
2019-04-07T20:21:40.803Z,15.10
2019-04-07T20:24:25.932Z,15.10
2019-04-07T20:27:22.661Z,15.00
2019-04-07T20:30:17.713Z,15.00
2019-04-07T20:33:09.815Z,14.90
2019-04-07T20:36:20.289Z,14.90
2019-04-07T20:39:03.882Z,14.80
2019-04-07T20:42:05.173Z,14.80
2019-04-07T20:45:01.510Z,14.70
2019-04-07T20:47:36.144Z,14.60
2019-04-07T20:50:29.231Z,14.60
2019-04-07T20:53:23.465Z,14.70
2019-04-07T20:56:01.837Z,14.70
2019-04-07T20:59:04.638Z,14.70
2019-04-07T21:02:01.590Z,14.60
2019-04-07T21:04:38.408Z,14.60
2019-04-07T21:07:20.710Z,14.60
2019-04-07T21:10:09.863Z,14.60
2019-04-07T21:12:54.749Z,14.60
2019-04-07T21:15:43.854Z,14.60
2019-04-07T21:18:42.303Z,14.50
2019-04-07T21:21:32.273Z,14.40
2019-04-07T21:24:33.549Z,14.30
2019-04-07T21:27:33.720Z,14.30
2019-04-07T21:30:20.641Z,14.20
2019-04-07T21:33:01.058Z,14.20
2019-04-07T21:35:47.993Z,14.20
2019-04-07T21:38:31.374Z,14.20
2019-04-07T21:41:19.662Z,14.10
2019-04-07T21:44:14.395Z,14.10
2019-04-07T21:47:23.622Z,14.20
2019-04-07T21:50:23.206Z,14.20
2019-04-07T21:53:17.195Z,14.20
2019-04-07T21:55:56.109Z,14.20
2019-04-07T21:58:37.774Z,14.20
2019-04-07T22:01:41.168Z,14.20
2019-04-07T22:04:21.075Z,14.20
2019-04-07T22:07:22.619Z,14.20
2019-04-07T22:10:00.647Z,14.20
2019-04-07T22:12:33.917Z,14.20
2019-04-07T22:15:04.433Z,14.20
2019-04-07T22:17:46.341Z,14.20
2019-04-07T22:20:18.740Z,14.20
2019-04-07T22:23:01.052Z,14.20
2019-04-07T22:25:38.352Z,14.20
2019-04-07T22:28:08.449Z,14.10
2019-04-07T22:30:41.252Z,14.10
2019-04-07T22:33:23.052Z,14.10
2019-04-07T22:35:53.301Z,14.00
2019-04-07T22:38:23.912Z,14.00
2019-04-07T22:41:01.142Z,14.00
2019-04-07T22:43:30.295Z,14.10
2019-04-07T22:46:18.360Z,14.10
2019-04-07T22:49:18.200Z,14.10
2019-04-07T22:52:05.715Z,14.10
2019-04-07T22:54:36.817Z,14.10
2019-04-07T22:57:11.083Z,14.00
2019-04-07T22:59:44.196Z,14.00
2019-04-07T23:02:14.665Z,14.00
2019-04-07T23:04:48.909Z,14.00
2019-04-07T23:07:27.656Z,14.00
2019-04-07T23:10:09.153Z,14.00
2019-04-07T23:12:44.425Z,14.10
2019-04-07T23:15:20.737Z,14.00
2019-04-07T23:17:55.888Z,14.00
2019-04-07T23:20:29.219Z,13.90
2019-04-07T23:23:14.504Z,14.00
2019-04-07T23:25:46.077Z,14.00
2019-04-07T23:28:15.307Z,14.00
2019-04-07T23:30:45.095Z,14.00
2019-04-07T23:33:16.506Z,14.00
2019-04-07T23:35:45.646Z,14.00
2019-04-07T23:38:15.523Z,14.00
2019-04-07T23:40:46.166Z,14.00
2019-04-07T23:43:16.284Z,14.00
2019-04-07T23:45:47.630Z,14.00
2019-04-07T23:48:36.131Z,14.00
2019-04-07T23:51:07.867Z,14.00
2019-04-07T23:54:14.279Z,14.00
2019-04-07T23:56:54.491Z,14.00
2019-04-07T23:59:30.841Z,13.90
